sensor_id;sensor_type;location;lat;lon;timestamp;P1;durP1;ratioP1;P2;durP2;ratioP2
727;SDS011;347;48.780;9.158;2022-09-23T00:00:30;9.73;;;9.33;;
727;SDS011;347;48.780;9.158;2022-09-23T00:02:55;9.90;;;9.20;;
727;SDS011;347;48.780;9.158;2022-09-23T00:05:23;9.47;;;8.87;;
727;SDS011;347;48.780;9.158;2022-09-23T00:07:49;10.60;;;9.80;;
727;SDS011;347;48.780;9.158;2022-09-23T00:10:15;9.50;;;8.90;;
727;SDS011;347;48.780;9.158;2022-09-23T00:12:41;9.37;;;8.67;;
727;SDS011;347;48.780;9.158;2022-09-23T00:15:07;9.20;;;8.70;;
727;SDS011;347;48.780;9.158;2022-09-23T00:17:35;9.50;;;9.00;;
727;SDS011;347;48.780;9.158;2022-09-23T00:20:01;9.00;;;8.60;;
727;SDS011;347;48.780;9.158;2022-09-23T00:22:26;11.07;;;10.30;;
727;SDS011;347;48.780;9.158;2022-09-23T00:24:52;9.70;;;9.13;;
727;SDS011;347;48.780;9.158;2022-09-23T00:27:18;9.80;;;9.20;;
727;SDS011;347;48.780;9.158;2022-09-23T00:29:45;11.10;;;10.27;;
727;SDS011;347;48.780;9.158;2022-09-23T00:32:11;9.60;;;9.20;;
727;SDS011;347;48.780;9.158;2022-09-23T00:34:37;10.50;;;9.80;;
727;SDS011;347;48.780;9.158;2022-09-23T00:37:03;10.47;;;9.87;;
727;SDS011;347;48.780;9.158;2022-09-23T00:39:28;10.83;;;10.20;;
727;SDS011;347;48.780;9.158;2022-09-23T00:41:54;9.60;;;9.20;;
727;SDS011;347;48.780;9.158;2022-09-23T00:47:50;10.00;;;9.50;;
727;SDS011;347;48.780;9.158;2022-09-23T00:52:42;9.90;;;9.30;;
727;SDS011;347;48.780;9.158;2022-09-23T00:55:31;9.43;;;8.90;;
727;SDS011;347;48.780;9.158;2022-09-23T00:57:58;10.43;;;9.83;;
727;SDS011;347;48.780;9.158;2022-09-23T01:00:26;10.53;;;10.03;;
727;SDS011;347;48.780;9.158;2022-09-23T01:02:52;10.60;;;10.00;;
727;SDS011;347;48.780;9.158;2022-09-23T01:05:18;10.47;;;9.87;;
727;SDS011;347;48.780;9.158;2022-09-23T01:07:45;10.47;;;9.90;;
727;SDS011;347;48.780;9.158;2022-09-23T01:10:11;10.50;;;9.87;;
727;SDS011;347;48.780;9.158;2022-09-23T01:17:48;10.30;;;9.80;;
727;SDS011;347;48.780;9.158;2022-09-23T01:34:21;9.80;;;9.30;;
727;SDS011;347;48.780;9.158;2022-09-23T01:45:34;10.73;;;10.03;;
727;SDS011;347;48.780;9.158;2022-09-23T01:48:18;10.33;;;9.63;;
727;SDS011;347;48.780;9.158;2022-09-23T01:51:31;11.07;;;10.30;;
727;SDS011;347;48.780;9.158;2022-09-23T01:56:32;9.80;;;9.37;;
727;SDS011;347;48.780;9.158;2022-09-23T01:59:11;11.70;;;10.87;;
727;SDS011;347;48.780;9.158;2022-09-23T02:04:26;11.37;;;10.70;;
727;SDS011;347;48.780;9.158;2022-09-23T02:06:58;11.17;;;10.67;;
727;SDS011;347;48.780;9.158;2022-09-23T02:09:29;11.80;;;11.20;;
727;SDS011;347;48.780;9.158;2022-09-23T02:12:02;11.50;;;10.97;;
727;SDS011;347;48.780;9.158;2022-09-23T02:14:35;10.80;;;10.27;;
727;SDS011;347;48.780;9.158;2022-09-23T02:17:10;11.13;;;10.50;;
727;SDS011;347;48.780;9.158;2022-09-23T02:19:42;10.77;;;10.27;;
727;SDS011;347;48.780;9.158;2022-09-23T02:22:14;10.87;;;10.37;;
727;SDS011;347;48.780;9.158;2022-09-23T02:24:59;11.30;;;10.70;;
727;SDS011;347;48.780;9.158;2022-09-23T02:30:22;11.07;;;10.30;;
727;SDS011;347;48.780;9.158;2022-09-23T02:35:59;11.40;;;10.80;;
727;SDS011;347;48.780;9.158;2022-09-23T02:38:36;10.83;;;10.33;;
727;SDS011;347;48.780;9.158;2022-09-23T02:46:32;11.07;;;10.47;;
727;SDS011;347;48.780;9.158;2022-09-23T02:49:15;11.50;;;10.87;;
727;SDS011;347;48.780;9.158;2022-09-23T02:51:45;11.03;;;10.43;;
727;SDS011;347;48.780;9.158;2022-09-23T02:54:12;10.03;;;9.63;;
727;SDS011;347;48.780;9.158;2022-09-23T02:56:43;10.77;;;10.17;;
727;SDS011;347;48.780;9.158;2022-09-23T02:59:09;10.63;;;10.13;;
727;SDS011;347;48.780;9.158;2022-09-23T03:18:11;11.40;;;10.80;;
727;SDS011;347;48.780;9.158;2022-09-23T03:23:22;11.50;;;10.90;;
727;SDS011;347;48.780;9.158;2022-09-23T03:25:53;12.33;;;11.63;;
727;SDS011;347;48.780;9.158;2022-09-23T03:28:21;12.00;;;11.30;;
727;SDS011;347;48.780;9.158;2022-09-23T03:30:49;11.33;;;10.80;;
727;SDS011;347;48.780;9.158;2022-09-23T03:33:17;12.70;;;12.10;;
727;SDS011;347;48.780;9.158;2022-09-23T03:36:20;11.10;;;10.50;;
727;SDS011;347;48.780;9.158;2022-09-23T03:39:04;11.40;;;10.70;;
727;SDS011;347;48.780;9.158;2022-09-23T03:41:41;11.03;;;10.53;;
727;SDS011;347;48.780;9.158;2022-09-23T03:44:15;11.50;;;10.80;;
727;SDS011;347;48.780;9.158;2022-09-23T03:46:41;11.63;;;11.00;;
727;SDS011;347;48.780;9.158;2022-09-23T03:49:23;12.20;;;11.20;;
727;SDS011;347;48.780;9.158;2022-09-23T03:51:52;10.97;;;10.40;;
727;SDS011;347;48.780;9.158;2022-09-23T03:54:18;11.70;;;11.10;;
727;SDS011;347;48.780;9.158;2022-09-23T03:56:44;10.97;;;10.53;;
727;SDS011;347;48.780;9.158;2022-09-23T03:59:11;11.63;;;10.93;;
727;SDS011;347;48.780;9.158;2022-09-23T04:01:39;11.50;;;10.90;;
727;SDS011;347;48.780;9.158;2022-09-23T04:04:05;12.07;;;11.47;;
727;SDS011;347;48.780;9.158;2022-09-23T04:06:32;11.60;;;11.00;;
727;SDS011;347;48.780;9.158;2022-09-23T04:08:57;11.53;;;10.93;;
727;SDS011;347;48.780;9.158;2022-09-23T04:11:23;11.83;;;11.33;;
727;SDS011;347;48.780;9.158;2022-09-23T04:13:49;11.37;;;10.87;;
727;SDS011;347;48.780;9.158;2022-09-23T04:16:14;11.30;;;10.90;;
727;SDS011;347;48.780;9.158;2022-09-23T04:18:40;10.90;;;10.40;;
727;SDS011;347;48.780;9.158;2022-09-23T04:21:05;11.40;;;10.90;;
727;SDS011;347;48.780;9.158;2022-09-23T04:23:31;11.27;;;10.67;;
727;SDS011;347;48.780;9.158;2022-09-23T04:25:57;11.37;;;10.67;;
727;SDS011;347;48.780;9.158;2022-09-23T04:28:22;12.30;;;11.50;;
727;SDS011;347;48.780;9.158;2022-09-23T04:30:48;11.17;;;10.57;;
727;SDS011;347;48.780;9.158;2022-09-23T04:33:14;10.70;;;10.20;;
727;SDS011;347;48.780;9.158;2022-09-23T04:35:40;11.37;;;10.87;;
727;SDS011;347;48.780;9.158;2022-09-23T04:38:09;11.60;;;11.00;;
727;SDS011;347;48.780;9.158;2022-09-23T04:40:36;10.60;;;10.20;;
727;SDS011;347;48.780;9.158;2022-09-23T04:43:02;10.17;;;9.67;;
727;SDS011;347;48.780;9.158;2022-09-23T04:45:27;11.57;;;10.97;;
727;SDS011;347;48.780;9.158;2022-09-23T04:47:54;12.20;;;11.40;;
727;SDS011;347;48.780;9.158;2022-09-23T04:50:22;11.03;;;10.50;;
727;SDS011;347;48.780;9.158;2022-09-23T04:52:50;11.47;;;10.87;;
727;SDS011;347;48.780;9.158;2022-09-23T04:55:16;11.07;;;10.57;;
727;SDS011;347;48.780;9.158;2022-09-23T04:57:42;11.83;;;11.20;;
727;SDS011;347;48.780;9.158;2022-09-23T05:00:08;11.23;;;10.40;;
727;SDS011;347;48.780;9.158;2022-09-23T05:02:41;11.63;;;11.03;;
727;SDS011;347;48.780;9.158;2022-09-23T05:05:08;10.80;;;10.20;;
727;SDS011;347;48.780;9.158;2022-09-23T05:07:33;14.30;;;12.10;;
727;SDS011;347;48.780;9.158;2022-09-23T05:09:59;11.00;;;10.40;;
727;SDS011;347;48.780;9.158;2022-09-23T05:12:25;11.47;;;10.97;;
727;SDS011;347;48.780;9.158;2022-09-23T05:14:51;11.93;;;11.27;;
727;SDS011;347;48.780;9.158;2022-09-23T05:17:16;11.30;;;10.80;;
727;SDS011;347;48.780;9.158;2022-09-23T05:19:42;13.17;;;12.37;;
727;SDS011;347;48.780;9.158;2022-09-23T05:22:07;12.40;;;11.77;;
727;SDS011;347;48.780;9.158;2022-09-23T05:24:33;12.43;;;11.73;;
727;SDS011;347;48.780;9.158;2022-09-23T05:26:59;12.83;;;12.20;;
727;SDS011;347;48.780;9.158;2022-09-23T05:29:24;12.63;;;12.03;;
727;SDS011;347;48.780;9.158;2022-09-23T05:31:50;12.53;;;11.57;;
727;SDS011;347;48.780;9.158;2022-09-23T05:34:16;12.90;;;12.20;;
727;SDS011;347;48.780;9.158;2022-09-23T05:36:42;11.70;;;11.20;;
727;SDS011;347;48.780;9.158;2022-09-23T05:39:08;12.53;;;11.90;;
727;SDS011;347;48.780;9.158;2022-09-23T05:41:35;12.10;;;11.40;;
727;SDS011;347;48.780;9.158;2022-09-23T05:44:01;12.47;;;11.87;;
727;SDS011;347;48.780;9.158;2022-09-23T05:46:28;13.60;;;12.70;;
727;SDS011;347;48.780;9.158;2022-09-23T05:48:54;12.83;;;12.10;;
727;SDS011;347;48.780;9.158;2022-09-23T05:51:22;12.20;;;11.50;;
727;SDS011;347;48.780;9.158;2022-09-23T05:53:49;12.57;;;11.97;;
727;SDS011;347;48.780;9.158;2022-09-23T05:56:18;12.80;;;12.10;;
727;SDS011;347;48.780;9.158;2022-09-23T05:58:47;12.67;;;11.97;;
727;SDS011;347;48.780;9.158;2022-09-23T06:01:14;13.67;;;12.83;;
727;SDS011;347;48.780;9.158;2022-09-23T06:03:51;13.07;;;12.17;;
727;SDS011;347;48.780;9.158;2022-09-23T06:06:19;12.30;;;11.80;;
727;SDS011;347;48.780;9.158;2022-09-23T06:08:50;12.60;;;11.80;;
727;SDS011;347;48.780;9.158;2022-09-23T06:11:16;13.70;;;12.60;;
727;SDS011;347;48.780;9.158;2022-09-23T06:13:41;13.53;;;12.80;;
727;SDS011;347;48.780;9.158;2022-09-23T06:16:11;12.80;;;12.10;;
727;SDS011;347;48.780;9.158;2022-09-23T06:18:38;13.03;;;12.33;;
727;SDS011;347;48.780;9.158;2022-09-23T06:21:12;13.10;;;12.40;;
727;SDS011;347;48.780;9.158;2022-09-23T06:23:40;13.13;;;12.43;;
727;SDS011;347;48.780;9.158;2022-09-23T06:26:07;13.70;;;13.10;;
727;SDS011;347;48.780;9.158;2022-09-23T06:28:36;13.50;;;12.80;;
727;SDS011;347;48.780;9.158;2022-09-23T06:31:04;14.53;;;13.73;;
727;SDS011;347;48.780;9.158;2022-09-23T06:33:32;17.67;;;13.67;;
727;SDS011;347;48.780;9.158;2022-09-23T06:35:59;13.37;;;12.57;;
727;SDS011;347;48.780;9.158;2022-09-23T06:38:27;13.00;;;12.40;;
727;SDS011;347;48.780;9.158;2022-09-23T06:40:54;13.50;;;12.73;;
727;SDS011;347;48.780;9.158;2022-09-23T06:43:21;13.57;;;12.80;;
727;SDS011;347;48.780;9.158;2022-09-23T06:45:54;13.63;;;12.30;;
727;SDS011;347;48.780;9.158;2022-09-23T06:48:21;13.90;;;13.10;;
727;SDS011;347;48.780;9.158;2022-09-23T06:50:48;13.20;;;12.40;;
727;SDS011;347;48.780;9.158;2022-09-23T06:53:15;13.10;;;12.50;;
727;SDS011;347;48.780;9.158;2022-09-23T06:55:42;13.07;;;12.20;;
727;SDS011;347;48.780;9.158;2022-09-23T06:58:08;12.73;;;12.10;;
727;SDS011;347;48.780;9.158;2022-09-23T07:00:34;12.63;;;12.03;;
727;SDS011;347;48.780;9.158;2022-09-23T07:03:02;12.80;;;12.20;;
727;SDS011;347;48.780;9.158;2022-09-23T07:05:31;12.47;;;11.87;;
727;SDS011;347;48.780;9.158;2022-09-23T07:07:57;12.77;;;12.17;;
727;SDS011;347;48.780;9.158;2022-09-23T07:10:23;11.97;;;11.47;;
727;SDS011;347;48.780;9.158;2022-09-23T07:12:52;14.60;;;13.60;;
727;SDS011;347;48.780;9.158;2022-09-23T07:15:17;12.80;;;11.90;;
727;SDS011;347;48.780;9.158;2022-09-23T07:17:43;13.47;;;12.73;;
727;SDS011;347;48.780;9.158;2022-09-23T07:20:08;12.93;;;12.23;;
727;SDS011;347;48.780;9.158;2022-09-23T07:22:35;12.07;;;11.50;;
727;SDS011;347;48.780;9.158;2022-09-23T07:25:02;12.50;;;12.00;;
727;SDS011;347;48.780;9.158;2022-09-23T07:27:28;12.73;;;12.03;;
727;SDS011;347;48.780;9.158;2022-09-23T07:29:54;13.73;;;12.80;;
727;SDS011;347;48.780;9.158;2022-09-23T07:32:20;13.97;;;12.97;;
727;SDS011;347;48.780;9.158;2022-09-23T07:34:47;13.97;;;13.10;;
727;SDS011;347;48.780;9.158;2022-09-23T07:37:13;14.33;;;13.63;;
727;SDS011;347;48.780;9.158;2022-09-23T07:39:40;13.03;;;12.43;;
727;SDS011;347;48.780;9.158;2022-09-23T07:42:06;12.57;;;12.00;;
727;SDS011;347;48.780;9.158;2022-09-23T07:44:33;13.60;;;13.00;;
727;SDS011;347;48.780;9.158;2022-09-23T07:46:59;14.10;;;13.20;;
727;SDS011;347;48.780;9.158;2022-09-23T07:49:25;14.23;;;13.53;;
727;SDS011;347;48.780;9.158;2022-09-23T07:51:52;13.73;;;13.03;;
727;SDS011;347;48.780;9.158;2022-09-23T07:54:18;13.77;;;12.93;;
727;SDS011;347;48.780;9.158;2022-09-23T07:56:44;14.60;;;13.90;;
727;SDS011;347;48.780;9.158;2022-09-23T07:59:14;13.80;;;13.00;;
727;SDS011;347;48.780;9.158;2022-09-23T08:01:43;14.47;;;13.17;;
727;SDS011;347;48.780;9.158;2022-09-23T08:04:11;13.23;;;12.57;;
727;SDS011;347;48.780;9.158;2022-09-23T08:06:40;13.13;;;12.53;;
727;SDS011;347;48.780;9.158;2022-09-23T08:09:07;15.47;;;14.53;;
727;SDS011;347;48.780;9.158;2022-09-23T08:11:33;14.43;;;13.43;;
727;SDS011;347;48.780;9.158;2022-09-23T08:14:00;15.07;;;14.27;;
727;SDS011;347;48.780;9.158;2022-09-23T08:16:26;14.10;;;13.30;;
727;SDS011;347;48.780;9.158;2022-09-23T08:18:51;15.37;;;14.57;;
727;SDS011;347;48.780;9.158;2022-09-23T08:21:18;14.37;;;13.67;;
727;SDS011;347;48.780;9.158;2022-09-23T08:23:45;14.50;;;13.70;;
727;SDS011;347;48.780;9.158;2022-09-23T08:26:11;13.23;;;12.53;;
727;SDS011;347;48.780;9.158;2022-09-23T08:28:36;13.50;;;12.90;;
727;SDS011;347;48.780;9.158;2022-09-23T08:31:02;13.17;;;12.47;;
727;SDS011;347;48.780;9.158;2022-09-23T08:33:28;13.47;;;12.77;;
727;SDS011;347;48.780;9.158;2022-09-23T08:35:57;15.37;;;14.23;;
727;SDS011;347;48.780;9.158;2022-09-23T08:38:24;14.70;;;13.70;;
727;SDS011;347;48.780;9.158;2022-09-23T08:40:50;14.63;;;13.33;;
727;SDS011;347;48.780;9.158;2022-09-23T08:43:25;14.00;;;13.10;;
727;SDS011;347;48.780;9.158;2022-09-23T08:45:53;13.37;;;12.77;;
727;SDS011;347;48.780;9.158;2022-09-23T08:48:26;13.47;;;12.87;;
727;SDS011;347;48.780;9.158;2022-09-23T08:51:02;13.57;;;12.90;;
727;SDS011;347;48.780;9.158;2022-09-23T08:53:34;13.63;;;13.03;;
727;SDS011;347;48.780;9.158;2022-09-23T08:56:12;14.13;;;13.30;;
727;SDS011;347;48.780;9.158;2022-09-23T09:04:21;13.73;;;13.03;;
727;SDS011;347;48.780;9.158;2022-09-23T09:06:51;12.17;;;11.60;;
727;SDS011;347;48.780;9.158;2022-09-23T09:10:08;12.67;;;12.07;;
727;SDS011;347;48.780;9.158;2022-09-23T09:12:34;13.50;;;12.63;;
727;SDS011;347;48.780;9.158;2022-09-23T09:15:13;12.13;;;11.43;;
727;SDS011;347;48.780;9.158;2022-09-23T09:21:10;12.70;;;12.00;;
727;SDS011;347;48.780;9.158;2022-09-23T09:26:40;12.47;;;11.97;;
727;SDS011;347;48.780;9.158;2022-09-23T09:31:45;13.00;;;12.40;;
727;SDS011;347;48.780;9.158;2022-09-23T09:34:21;13.53;;;12.90;;
727;SDS011;347;48.780;9.158;2022-09-23T09:37:07;12.10;;;11.60;;
727;SDS011;347;48.780;9.158;2022-09-23T09:39:44;13.30;;;12.60;;
727;SDS011;347;48.780;9.158;2022-09-23T09:42:13;12.37;;;11.87;;
727;SDS011;347;48.780;9.158;2022-09-23T09:44:49;12.77;;;12.17;;
727;SDS011;347;48.780;9.158;2022-09-23T09:50:14;12.00;;;11.40;;
727;SDS011;347;48.780;9.158;2022-09-23T09:52:45;12.77;;;12.00;;
727;SDS011;347;48.780;9.158;2022-09-23T10:02:42;16.60;;;15.37;;
727;SDS011;347;48.780;9.158;2022-09-23T10:05:21;11.70;;;11.20;;
727;SDS011;347;48.780;9.158;2022-09-23T10:07:49;11.73;;;11.17;;
727;SDS011;347;48.780;9.158;2022-09-23T10:10:19;11.60;;;10.80;;
727;SDS011;347;48.780;9.158;2022-09-23T10:12:49;11.43;;;11.03;;
727;SDS011;347;48.780;9.158;2022-09-23T10:15:27;11.47;;;10.77;;
727;SDS011;347;48.780;9.158;2022-09-23T10:17:55;11.10;;;10.60;;
727;SDS011;347;48.780;9.158;2022-09-23T10:20:22;11.33;;;10.90;;
727;SDS011;347;48.780;9.158;2022-09-23T10:22:47;11.90;;;11.30;;
727;SDS011;347;48.780;9.158;2022-09-23T10:25:19;10.93;;;10.53;;
727;SDS011;347;48.780;9.158;2022-09-23T10:27:49;10.73;;;10.33;;
727;SDS011;347;48.780;9.158;2022-09-23T10:30:22;11.70;;;11.10;;
727;SDS011;347;48.780;9.158;2022-09-23T10:32:51;11.80;;;10.63;;
727;SDS011;347;48.780;9.158;2022-09-23T10:35:25;11.17;;;10.73;;
727;SDS011;347;48.780;9.158;2022-09-23T10:37:52;11.40;;;10.70;;
727;SDS011;347;48.780;9.158;2022-09-23T10:40:28;11.63;;;11.03;;
727;SDS011;347;48.780;9.158;2022-09-23T10:46:28;11.77;;;11.07;;
727;SDS011;347;48.780;9.158;2022-09-23T10:57:00;14.00;;;12.80;;
727;SDS011;347;48.780;9.158;2022-09-23T11:13:43;12.03;;;11.30;;
727;SDS011;347;48.780;9.158;2022-09-23T11:38:20;11.90;;;11.20;;
727;SDS011;347;48.780;9.158;2022-09-23T11:40:54;12.90;;;12.20;;
727;SDS011;347;48.780;9.158;2022-09-23T11:43:28;11.93;;;11.23;;
727;SDS011;347;48.780;9.158;2022-09-23T11:51:39;11.97;;;11.37;;
727;SDS011;347;48.780;9.158;2022-09-23T11:56:49;12.40;;;11.70;;
727;SDS011;347;48.780;9.158;2022-09-23T11:59:23;12.07;;;11.50;;
727;SDS011;347;48.780;9.158;2022-09-23T12:02:20;11.97;;;11.27;;
727;SDS011;347;48.780;9.158;2022-09-23T12:04:54;11.33;;;10.73;;
727;SDS011;347;48.780;9.158;2022-09-23T12:10:12;11.77;;;11.17;;
727;SDS011;347;48.780;9.158;2022-09-23T12:15:29;12.13;;;11.43;;
727;SDS011;347;48.780;9.158;2022-09-23T12:26:39;12.27;;;11.67;;
727;SDS011;347;48.780;9.158;2022-09-23T12:29:08;13.03;;;12.43;;
727;SDS011;347;48.780;9.158;2022-09-23T12:31:37;13.17;;;12.47;;
727;SDS011;347;48.780;9.158;2022-09-23T12:34:26;11.40;;;10.80;;
727;SDS011;347;48.780;9.158;2022-09-23T12:37:02;12.93;;;11.87;;
727;SDS011;347;48.780;9.158;2022-09-23T12:39:29;12.80;;;11.87;;
727;SDS011;347;48.780;9.158;2022-09-23T12:42:05;11.53;;;10.93;;
727;SDS011;347;48.780;9.158;2022-09-23T12:44:40;12.00;;;11.33;;
727;SDS011;347;48.780;9.158;2022-09-23T12:49:45;14.07;;;13.07;;
727;SDS011;347;48.780;9.158;2022-09-23T12:54:41;13.17;;;12.37;;
727;SDS011;347;48.780;9.158;2022-09-23T12:57:12;12.20;;;11.40;;
727;SDS011;347;48.780;9.158;2022-09-23T12:59:58;12.83;;;12.10;;
727;SDS011;347;48.780;9.158;2022-09-23T13:05:32;13.07;;;12.47;;
727;SDS011;347;48.780;9.158;2022-09-23T13:08:37;12.70;;;12.00;;
727;SDS011;347;48.780;9.158;2022-09-23T13:11:05;12.40;;;11.80;;
727;SDS011;347;48.780;9.158;2022-09-23T13:13:40;12.80;;;12.10;;
727;SDS011;347;48.780;9.158;2022-09-23T13:16:09;12.20;;;11.70;;
727;SDS011;347;48.780;9.158;2022-09-23T13:24:14;13.30;;;12.30;;
727;SDS011;347;48.780;9.158;2022-09-23T13:26:49;11.93;;;11.40;;
727;SDS011;347;48.780;9.158;2022-09-23T13:29:19;11.93;;;11.13;;
727;SDS011;347;48.780;9.158;2022-09-23T13:31:52;13.63;;;12.60;;
727;SDS011;347;48.780;9.158;2022-09-23T13:34:23;21.43;;;19.53;;
727;SDS011;347;48.780;9.158;2022-09-23T13:36:54;16.00;;;14.80;;
727;SDS011;347;48.780;9.158;2022-09-23T13:39:24;14.07;;;13.30;;
727;SDS011;347;48.780;9.158;2022-09-23T13:41:52;11.63;;;10.97;;
727;SDS011;347;48.780;9.158;2022-09-23T13:44:22;11.40;;;10.80;;
727;SDS011;347;48.780;9.158;2022-09-23T13:46:49;12.33;;;11.23;;
727;SDS011;347;48.780;9.158;2022-09-23T13:49:19;12.00;;;11.20;;
727;SDS011;347;48.780;9.158;2022-09-23T13:51:50;14.60;;;13.50;;
727;SDS011;347;48.780;9.158;2022-09-23T13:55:01;12.30;;;11.63;;
727;SDS011;347;48.780;9.158;2022-09-23T13:57:27;13.40;;;12.60;;
727;SDS011;347;48.780;9.158;2022-09-23T14:00:15;12.40;;;11.77;;
727;SDS011;347;48.780;9.158;2022-09-23T14:02:42;11.83;;;11.13;;
727;SDS011;347;48.780;9.158;2022-09-23T14:05:21;12.13;;;11.33;;
727;SDS011;347;48.780;9.158;2022-09-23T14:07:49;11.60;;;10.80;;
727;SDS011;347;48.780;9.158;2022-09-23T14:10:17;11.23;;;10.50;;
727;SDS011;347;48.780;9.158;2022-09-23T14:12:45;11.13;;;10.23;;
727;SDS011;347;48.780;9.158;2022-09-23T14:15:13;11.30;;;10.70;;
727;SDS011;347;48.780;9.158;2022-09-23T14:17:44;10.97;;;10.37;;
727;SDS011;347;48.780;9.158;2022-09-23T14:20:12;11.00;;;10.37;;
727;SDS011;347;48.780;9.158;2022-09-23T14:22:39;11.13;;;10.43;;
727;SDS011;347;48.780;9.158;2022-09-23T14:25:10;12.17;;;11.20;;
727;SDS011;347;48.780;9.158;2022-09-23T14:27:41;10.63;;;10.20;;
727;SDS011;347;48.780;9.158;2022-09-23T14:30:15;12.37;;;11.00;;
727;SDS011;347;48.780;9.158;2022-09-23T14:32:44;10.57;;;10.07;;
727;SDS011;347;48.780;9.158;2022-09-23T14:37:45;11.90;;;11.20;;
727;SDS011;347;48.780;9.158;2022-09-23T14:40:34;10.73;;;10.00;;
727;SDS011;347;48.780;9.158;2022-09-23T14:45:30;11.70;;;11.00;;
727;SDS011;347;48.780;9.158;2022-09-23T14:47:59;12.60;;;11.97;;
727;SDS011;347;48.780;9.158;2022-09-23T14:50:30;12.50;;;11.67;;
727;SDS011;347;48.780;9.158;2022-09-23T14:55:43;11.00;;;10.50;;
727;SDS011;347;48.780;9.158;2022-09-23T14:58:14;10.97;;;10.43;;
727;SDS011;347;48.780;9.158;2022-09-23T15:00:53;12.13;;;11.40;;
727;SDS011;347;48.780;9.158;2022-09-23T15:03:21;11.53;;;10.93;;
727;SDS011;347;48.780;9.158;2022-09-23T15:05:47;11.30;;;10.70;;
727;SDS011;347;48.780;9.158;2022-09-23T15:08:17;11.43;;;10.87;;
727;SDS011;347;48.780;9.158;2022-09-23T15:10:45;11.37;;;10.60;;
727;SDS011;347;48.780;9.158;2022-09-23T15:13:20;11.30;;;10.50;;
727;SDS011;347;48.780;9.158;2022-09-23T15:15:52;11.80;;;11.10;;
727;SDS011;347;48.780;9.158;2022-09-23T15:20:53;11.80;;;11.10;;
727;SDS011;347;48.780;9.158;2022-09-23T15:23:48;11.07;;;10.37;;
727;SDS011;347;48.780;9.158;2022-09-23T15:26:19;10.40;;;9.90;;
727;SDS011;347;48.780;9.158;2022-09-23T15:28:47;11.63;;;11.07;;
727;SDS011;347;48.780;9.158;2022-09-23T15:31:14;12.10;;;11.30;;
727;SDS011;347;48.780;9.158;2022-09-23T15:33:50;11.03;;;10.30;;
727;SDS011;347;48.780;9.158;2022-09-23T15:38:49;12.13;;;11.37;;
727;SDS011;347;48.780;9.158;2022-09-23T15:41:16;11.30;;;10.53;;
727;SDS011;347;48.780;9.158;2022-09-23T15:43:42;11.13;;;10.57;;
727;SDS011;347;48.780;9.158;2022-09-23T15:46:42;11.17;;;10.53;;
727;SDS011;347;48.780;9.158;2022-09-23T15:49:04;10.83;;;10.30;;
727;SDS011;347;48.780;9.158;2022-09-23T15:51:33;11.30;;;10.50;;
727;SDS011;347;48.780;9.158;2022-09-23T15:54:00;10.70;;;9.90;;
727;SDS011;347;48.780;9.158;2022-09-23T15:56:26;11.40;;;10.80;;
727;SDS011;347;48.780;9.158;2022-09-23T15:58:52;10.87;;;10.27;;
727;SDS011;347;48.780;9.158;2022-09-23T16:01:30;10.97;;;10.47;;
727;SDS011;347;48.780;9.158;2022-09-23T16:04:00;10.47;;;9.97;;
727;SDS011;347;48.780;9.158;2022-09-23T16:06:27;11.63;;;10.57;;
727;SDS011;347;48.780;9.158;2022-09-23T16:08:54;10.67;;;9.70;;
727;SDS011;347;48.780;9.158;2022-09-23T16:11:21;10.63;;;9.90;;
727;SDS011;347;48.780;9.158;2022-09-23T16:13:53;10.27;;;9.67;;
727;SDS011;347;48.780;9.158;2022-09-23T16:16:19;13.97;;;10.23;;
727;SDS011;347;48.780;9.158;2022-09-23T16:18:45;9.97;;;9.47;;
727;SDS011;347;48.780;9.158;2022-09-23T16:21:13;10.00;;;9.40;;
727;SDS011;347;48.780;9.158;2022-09-23T16:23:43;10.80;;;10.00;;
727;SDS011;347;48.780;9.158;2022-09-23T16:26:15;11.60;;;10.60;;
727;SDS011;347;48.780;9.158;2022-09-23T16:28:54;10.73;;;10.23;;
727;SDS011;347;48.780;9.158;2022-09-23T16:31:21;11.30;;;10.50;;
727;SDS011;347;48.780;9.158;2022-09-23T16:33:49;10.70;;;10.10;;
727;SDS011;347;48.780;9.158;2022-09-23T16:38:51;13.00;;;11.87;;
727;SDS011;347;48.780;9.158;2022-09-23T16:41:23;11.40;;;10.70;;
727;SDS011;347;48.780;9.158;2022-09-23T16:43:52;10.00;;;9.50;;
727;SDS011;347;48.780;9.158;2022-09-23T16:46:18;11.60;;;11.00;;
727;SDS011;347;48.780;9.158;2022-09-23T16:48:44;10.83;;;10.23;;
727;SDS011;347;48.780;9.158;2022-09-23T16:51:18;10.40;;;9.80;;
727;SDS011;347;48.780;9.158;2022-09-23T16:53:46;15.70;;;10.73;;
727;SDS011;347;48.780;9.158;2022-09-23T16:56:15;11.17;;;10.47;;
727;SDS011;347;48.780;9.158;2022-09-23T16:58:44;12.20;;;11.20;;
727;SDS011;347;48.780;9.158;2022-09-23T17:01:12;10.83;;;10.23;;
727;SDS011;347;48.780;9.158;2022-09-23T17:03:58;10.80;;;10.30;;
727;SDS011;347;48.780;9.158;2022-09-23T17:06:24;10.73;;;10.13;;
727;SDS011;347;48.780;9.158;2022-09-23T17:08:52;11.43;;;10.83;;
727;SDS011;347;48.780;9.158;2022-09-23T17:11:18;10.23;;;9.73;;
727;SDS011;347;48.780;9.158;2022-09-23T17:13:44;10.70;;;9.90;;
727;SDS011;347;48.780;9.158;2022-09-23T17:16:21;10.57;;;10.03;;
727;SDS011;347;48.780;9.158;2022-09-23T17:18:49;10.40;;;9.70;;
727;SDS011;347;48.780;9.158;2022-09-23T17:21:15;10.87;;;10.27;;
727;SDS011;347;48.780;9.158;2022-09-23T17:23:41;10.90;;;10.30;;
727;SDS011;347;48.780;9.158;2022-09-23T17:26:06;10.63;;;10.10;;
727;SDS011;347;48.780;9.158;2022-09-23T17:28:36;9.67;;;9.07;;
727;SDS011;347;48.780;9.158;2022-09-23T17:31:02;10.50;;;9.80;;
727;SDS011;347;48.780;9.158;2022-09-23T17:33:30;10.80;;;10.07;;
727;SDS011;347;48.780;9.158;2022-09-23T17:35:57;11.10;;;10.43;;
727;SDS011;347;48.780;9.158;2022-09-23T17:38:24;10.17;;;9.70;;
727;SDS011;347;48.780;9.158;2022-09-23T17:40:54;11.50;;;10.70;;
727;SDS011;347;48.780;9.158;2022-09-23T17:43:21;10.30;;;9.77;;
727;SDS011;347;48.780;9.158;2022-09-23T17:45:53;11.13;;;10.47;;
727;SDS011;347;48.780;9.158;2022-09-23T17:48:20;10.93;;;10.37;;
727;SDS011;347;48.780;9.158;2022-09-23T17:50:58;10.03;;;9.43;;
727;SDS011;347;48.780;9.158;2022-09-23T17:53:28;11.70;;;11.00;;
727;SDS011;347;48.780;9.158;2022-09-23T17:55:56;12.50;;;11.50;;
727;SDS011;347;48.780;9.158;2022-09-23T17:58:23;11.20;;;10.60;;
727;SDS011;347;48.780;9.158;2022-09-23T18:00:50;11.07;;;10.53;;
727;SDS011;347;48.780;9.158;2022-09-23T18:03:15;13.00;;;12.13;;
727;SDS011;347;48.780;9.158;2022-09-23T18:05:41;11.30;;;10.60;;
727;SDS011;347;48.780;9.158;2022-09-23T18:08:07;14.60;;;13.50;;
727;SDS011;347;48.780;9.158;2022-09-23T18:10:32;15.60;;;14.20;;
727;SDS011;347;48.780;9.158;2022-09-23T18:12:58;16.23;;;14.83;;
727;SDS011;347;48.780;9.158;2022-09-23T18:15:23;17.90;;;16.40;;
727;SDS011;347;48.780;9.158;2022-09-23T18:17:49;16.60;;;15.40;;
727;SDS011;347;48.780;9.158;2022-09-23T18:20:15;19.60;;;16.90;;
727;SDS011;347;48.780;9.158;2022-09-23T18:22:40;20.07;;;14.87;;
727;SDS011;347;48.780;9.158;2022-09-23T18:25:06;16.70;;;15.33;;
727;SDS011;347;48.780;9.158;2022-09-23T18:27:32;18.27;;;17.10;;
727;SDS011;347;48.780;9.158;2022-09-23T18:29:58;19.83;;;16.40;;
727;SDS011;347;48.780;9.158;2022-09-23T18:32:24;16.63;;;15.33;;
727;SDS011;347;48.780;9.158;2022-09-23T18:34:49;15.13;;;13.93;;
727;SDS011;347;48.780;9.158;2022-09-23T18:37:15;14.70;;;13.80;;
727;SDS011;347;48.780;9.158;2022-09-23T18:39:41;13.07;;;12.17;;
727;SDS011;347;48.780;9.158;2022-09-23T18:42:06;12.33;;;11.33;;
727;SDS011;347;48.780;9.158;2022-09-23T18:44:32;13.27;;;12.27;;
727;SDS011;347;48.780;9.158;2022-09-23T18:46:58;13.30;;;12.20;;